Time;durP1;ratioP1;P1;durP2;ratioP2;P2;SDS_P1;SDS_P2;PMS_P1;PMS_P2;Temp;Humidity;BMP_temperature;BMP_pressure;BME280_temperature;BME280_humidity;BME280_pressure;Samples;Min_cycle;Max_cycle;Signal;HPM_P1;HPM_P2
2023/03/04 00:01:02;;;;;;;28.77;16.30;;;;;;;5.78;84.09;95268.56;5051249;28;20043;-81
2023/03/04 00:03:27;;;;;;;30.60;15.50;;;;;;;5.14;83.25;95160.28;5050989;28;20064;-81
2023/03/04 00:05:52;;;;;;;31.38;16.27;;;;;;;5.13;82.66;95142.09;5049181;28;20041;-81
2023/03/04 00:08:18;;;;;;;27.65;15.88;;;;;;;5.64;82.43;95206.78;5051436;28;20096;-81
2023/03/04 00:10:43;;;;;;;27.90;16.02;;;;;;;6.13;81.81;95269.09;5052047;28;20087;-81
2023/03/04 00:13:09;;;;;;;31.38;16.80;;;;;;;5.45;82.15;95164.16;5049611;28;20036;-81
2023/03/04 00:15:34;;;;;;;26.73;15.40;;;;;;;6.09;82.24;95262.72;5049459;28;20033;-81
2023/03/04 00:18:00;;;;;;;30.70;16.58;;;;;;;5.33;82.34;95193.19;5051130;28;20060;-81
2023/03/04 00:20:25;;;;;;;29.45;15.60;;;;;;;5.74;81.94;95239.28;5049623;28;20056;-81
2023/03/04 00:22:50;;;;;;;28.45;16.55;;;;;;;5.43;83.06;95209.09;5049266;28;20486;-80
2023/03/04 00:25:16;;;;;;;23.35;15.07;;;;;;;5.11;83.06;95165.22;5050942;28;20032;-81
2023/03/04 00:27:43;;;;;;;27.50;15.52;;;;;;;4.91;83.69;95149.91;5049100;28;20033;-81
2023/03/04 00:30:09;;;;;;;30.10;17.48;;;;;;;5.61;83.60;95250.16;5050515;28;20090;-81
2023/03/04 00:32:35;;;;;;;29.13;16.25;;;;;;;5.01;84.28;95171.91;5050391;28;20550;-81
2023/03/04 00:35:00;;;;;;;30.48;17.77;;;;;;;5.14;84.21;95206.81;5049392;28;20038;-81
2023/03/04 00:37:26;;;;;;;29.88;17.13;;;;;;;5.13;84.38;95176.28;5050461;28;20502;-81
2023/03/04 00:39:51;;;;;;;35.03;19.35;;;;;;;4.96;84.43;95168.38;5051336;28;20104;-81
2023/03/04 00:42:16;;;;;;;32.03;18.45;;;;;;;5.41;84.67;95248.03;5050298;28;20044;-80
2023/03/04 00:44:42;;;;;;;33.50;19.75;;;;;;;5.42;84.19;95254.06;5050049;28;20025;-80
2023/03/04 00:47:07;;;;;;;36.15;19.20;;;;;;;4.39;84.87;95086.28;5050281;28;20132;-80
2023/03/04 00:49:33;;;;;;;30.23;17.83;;;;;;;4.57;84.22;95112.34;5051378;28;20025;-80
2023/03/04 00:51:58;;;;;;;34.92;19.48;;;;;;;5.37;84.58;95243.47;5050409;28;20115;-80
2023/03/04 00:54:24;;;;;;;36.83;20.23;;;;;;;4.21;83.61;95059.19;5050482;28;20388;-80
2023/03/04 00:56:49;;;;;;;38.05;19.35;;;;;;;5.42;84.55;95233.81;5050072;28;20040;-80
2023/03/04 00:59:14;;;;;;;35.22;18.92;;;;;;;5.40;83.86;95225.38;5053005;28;20029;-80
2023/03/04 01:01:40;;;;;;;35.15;19.48;;;;;;;5.50;84.20;95237.06;5050810;28;20533;-80
2023/03/04 01:04:05;;;;;;;31.70;18.23;;;;;;;4.53;83.71;95095.44;5053562;28;20056;-81
2023/03/04 01:06:31;;;;;;;30.85;18.38;;;;;;;5.43;84.21;95247.75;5052227;28;20127;-80
2023/03/04 01:08:56;;;;;;;36.78;18.58;;;;;;;4.70;83.95;95158.50;5052647;28;20041;-81
2023/03/04 01:11:22;;;;;;;40.65;19.10;;;;;;;5.49;84.66;95244.19;5052773;28;20127;-80
2023/03/04 01:13:47;;;;;;;31.75;17.95;;;;;;;4.93;84.04;95135.53;5052638;28;20086;-80
2023/03/04 01:16:13;;;;;;;29.63;16.73;;;;;;;5.42;82.62;95233.81;5054340;28;20082;-80
2023/03/04 01:18:38;;;;;;;29.05;17.40;;;;;;;4.35;83.70;95093.81;5053340;28;20044;-80
2023/03/04 01:21:04;;;;;;;38.10;18.92;;;;;;;4.48;84.50;95098.78;5054737;28;20044;-80
2023/03/04 01:23:30;;;;;;;33.28;19.10;;;;;;;4.90;83.76;95151.75;5052708;28;20549;-80
2023/03/04 01:25:55;;;;;;;33.08;17.55;;;;;;;4.83;83.56;95113.53;5052955;28;20037;-80
2023/03/04 01:28:21;;;;;;;33.30;17.73;;;;;;;4.98;82.83;95140.03;5056697;28;20044;-81
2023/03/04 01:30:46;;;;;;;27.70;16.73;;;;;;;4.98;82.34;95122.44;5054064;28;20094;-80
2023/03/04 01:33:12;;;;;;;32.53;17.98;;;;;;;5.60;81.96;95214.34;5053982;28;20490;-80
2023/03/04 01:35:37;;;;;;;27.08;16.50;;;;;;;5.09;82.39;95141.00;5053451;28;20029;-80
2023/03/04 01:38:03;;;;;;;27.58;16.10;;;;;;;5.49;82.20;95224.97;5053441;28;20055;-80
2023/03/04 01:40:29;;;;;;;33.20;17.30;;;;;;;4.75;82.81;95077.94;5053435;28;20431;-80
2023/03/04 01:42:55;;;;;;;28.98;16.50;;;;;;;5.28;81.80;95151.03;5051769;28;20037;-80
2023/03/04 01:45:21;;;;;;;27.63;17.00;;;;;;;5.75;80.96;95209.31;5053602;28;20021;-80
2023/03/04 01:47:48;;;;;;;33.05;17.48;;;;;;;5.51;81.34;95180.81;5052928;28;20036;-80
2023/03/04 01:50:32;;;;;;;29.50;17.38;;;;;;;5.60;82.33;95203.84;5052956;28;20482;-81
2023/03/04 01:52:59;;;;;;;33.75;16.67;;;;;;;4.91;82.32;95107.88;5052841;28;20584;-80
2023/03/04 01:55:24;;;;;;;36.33;18.63;;;;;;;5.60;82.75;95203.84;5051317;28;20033;-80
2023/03/04 01:57:51;;;;;;;28.08;17.48;;;;;;;5.30;82.52;95175.25;5034606;28;20037;-80
2023/03/04 02:00:24;;;;;;;34.00;18.60;;;;;;;5.43;81.79;95195.94;5052940;28;20029;-80
2023/03/04 02:02:57;;;;;;;30.15;18.13;;;;;;;4.77;81.83;95093.47;5053165;28;20043;-81
2023/03/04 02:05:23;;;;;;;33.17;17.23;;;;;;;5.40;81.80;95162.25;5051540;28;20029;-80
2023/03/04 02:07:51;;;;;;;31.80;16.65;;;;;;;5.31;82.25;95147.94;5051069;28;20036;-80
2023/03/04 02:10:17;;;;;;;30.98;16.98;;;;;;;5.08;82.04;95131.53;5052603;28;20029;-80
2023/03/04 02:12:43;;;;;;;28.65;17.00;;;;;;;5.00;82.06;95151.91;5052975;28;20109;-79
2023/03/04 02:15:09;;;;;;;32.38;17.63;;;;;;;5.34;82.09;95196.63;5052614;28;20501;-80
2023/03/04 02:17:34;;;;;;;33.05;18.80;;;;;;;4.97;81.94;95120.06;5052240;28;20116;-80
2023/03/04 02:20:00;;;;;;;31.50;16.85;;;;;;;5.49;82.75;95193.41;5051143;28;20025;-79
2023/03/04 02:22:25;;;;;;;30.23;16.40;;;;;;;4.80;81.84;95070.16;5051927;28;20045;-80
2023/03/04 02:25:02;;;;;;;31.05;16.58;;;;;;;5.25;81.76;95148.88;5050219;28;20029;-82
2023/03/04 02:27:27;;;;;;;31.63;17.77;;;;;;;4.61;81.86;95084.53;5051239;28;20036;-82
2023/03/04 02:29:53;;;;;;;31.05;17.65;;;;;;;4.75;82.33;95098.94;5050937;28;20016;-82
2023/03/04 02:32:18;;;;;;;32.30;16.95;;;;;;;5.37;81.57;95204.00;5050944;28;20031;-82
2023/03/04 02:34:49;;;;;;;28.13;16.35;;;;;;;5.50;82.11;95197.63;5051178;28;20029;-82
2023/03/04 02:37:16;;;;;;;29.80;16.83;;;;;;;5.33;80.94;95161.63;5049624;28;20056;-82
2023/03/04 02:39:47;;;;;;;30.80;17.05;;;;;;;4.97;81.31;95091.13;5049275;28;20043;-83
2023/03/04 02:42:12;;;;;;;28.95;16.40;;;;;;;5.69;80.39;95186.59;5051104;28;20025;-82
2023/03/04 02:44:42;;;;;;;38.50;16.92;;;;;;;4.70;80.02;95021.91;5049212;28;20037;-83
2023/03/04 02:47:10;;;;;;;35.20;17.23;;;;;;;5.41;79.69;95121.78;5050491;28;20114;-82
2023/03/04 02:49:37;;;;;;;26.83;15.82;;;;;;;5.52;79.91;95138.47;5050807;28;20033;-82
2023/03/04 02:52:12;;;;;;;30.80;16.85;;;;;;;5.91;80.15;95181.41;5049012;28;20029;-83
2023/03/04 02:54:38;;;;;;;28.20;14.77;;;;;;;5.44;79.11;95105.50;5029625;28;20041;-83
2023/03/04 02:57:07;;;;;;;28.80;15.90;;;;;;;5.40;79.19;95093.88;5048746;28;20028;-83
2023/03/04 02:59:32;;;;;;;26.02;15.32;;;;;;;5.92;79.37;95175.09;5045934;28;20128;-82
2023/03/04 03:01:57;;;;;;;27.83;16.42;;;;;;;5.29;79.52;95079.00;5041662;28;20151;-82
2023/03/04 03:04:24;;;;;;;33.00;15.35;;;;;;;5.92;79.41;95176.94;5048186;28;20024;-83
2023/03/04 03:06:50;;;;;;;26.95;15.63;;;;;;;5.32;79.05;95104.03;5048955;28;20587;-82
2023/03/04 03:09:15;;;;;;;28.08;16.02;;;;;;;4.85;79.71;95019.50;5050093;28;20119;-83
2023/03/04 03:11:41;;;;;;;29.83;16.85;;;;;;;5.86;79.29;95181.31;5050474;28;20036;-82
2023/03/04 03:14:07;;;;;;;27.83;17.02;;;;;;;5.81;78.72;95184.66;5048685;28;20179;-82
2023/03/04 03:16:32;;;;;;;28.30;15.48;;;;;;;5.76;78.99;95186.44;5048955;28;20198;-82
2023/03/04 03:18:58;;;;;;;27.63;16.17;;;;;;;4.98;79.58;95095.38;5049838;28;20033;-82
2023/03/04 03:21:23;;;;;;;33.65;16.42;;;;;;;5.10;79.20;95113.69;5049868;28;20119;-82
2023/03/04 03:23:49;;;;;;;28.23;15.73;;;;;;;5.61;78.74;95189.66;5050120;28;20119;-82
2023/03/04 03:26:15;;;;;;;28.17;15.40;;;;;;;5.21;79.57;95131.19;5052466;28;20036;-82
2023/03/04 03:28:40;;;;;;;28.63;16.25;;;;;;;5.07;79.55;95112.31;5065524;28;20087;-82
2023/03/04 03:31:06;;;;;;;26.98;15.52;;;;;;;4.86;79.39;95078.91;5048155;28;20036;-82
2023/03/04 03:33:31;;;;;;;30.50;16.13;;;;;;;5.02;78.92;95101.75;5049788;28;20116;-82
2023/03/04 03:35:57;;;;;;;29.20;15.85;;;;;;;4.44;79.31;95024.13;5049447;28;20033;-82
2023/03/04 03:38:23;;;;;;;27.50;15.60;;;;;;;5.08;79.57;95121.00;5048714;28;20033;-82
2023/03/04 03:40:48;;;;;;;30.83;15.30;;;;;;;4.35;78.91;95019.53;5048321;28;20017;-82
2023/03/04 03:43:14;;;;;;;29.45;17.23;;;;;;;4.56;78.73;95045.88;5048356;28;20063;-82
2023/03/04 03:45:39;;;;;;;31.83;17.98;;;;;;;4.71;78.89;95081.28;5052362;28;20032;-82
2023/03/04 03:48:05;;;;;;;35.55;18.63;;;;;;;4.59;79.28;95076.91;5066830;28;20079;-83
2023/03/04 03:50:30;;;;;;;33.78;18.27;;;;;;;5.21;79.42;95175.88;5049803;28;20147;-83
2023/03/04 03:52:56;;;;;;;33.35;17.13;;;;;;;4.93;79.35;95124.22;5047874;28;20064;-82
2023/03/04 03:55:22;;;;;;;32.10;17.77;;;;;;;4.96;79.34;95135.03;5049600;28;20423;-82
2023/03/04 03:57:47;;;;;;;33.83;16.83;;;;;;;5.23;79.64;95176.44;5049615;28;20090;-83
2023/03/04 04:00:15;;;;;;;29.80;16.83;;;;;;;4.96;80.26;95129.75;5049191;28;20029;-82
2023/03/04 04:02:40;;;;;;;30.35;17.20;;;;;;;5.19;80.14;95165.59;5049398;28;20087;-82
2023/03/04 04:05:07;;;;;;;31.95;17.30;;;;;;;4.94;80.42;95121.34;5047952;28;20067;-82
2023/03/04 04:07:33;;;;;;;31.17;16.80;;;;;;;4.73;80.02;95085.25;5049086;28;20487;-82
2023/03/04 04:09:58;;;;;;;29.75;17.42;;;;;;;4.54;79.60;95068.94;5049352;28;20101;-82
2023/03/04 04:12:24;;;;;;;35.25;17.40;;;;;;;4.20;78.88;95030.56;5048109;28;20033;-83
2023/03/04 04:14:49;;;;;;;26.90;15.75;;;;;;;5.02;79.43;95159.56;5049095;28;20523;-83
2023/03/04 04:17:15;;;;;;;27.58;16.58;;;;;;;4.95;79.20;95169.44;5047926;28;20033;-83
2023/03/04 04:19:41;;;;;;;29.73;16.77;;;;;;;4.91;79.57;95155.19;5047707;28;20036;-83
2023/03/04 04:22:12;;;;;;;31.17;16.75;;;;;;;4.06;79.54;95024.00;5031583;28;20064;-83
2023/03/04 04:24:37;;;;;;;35.03;17.52;;;;;;;4.88;79.18;95153.81;5049094;28;20414;-82
2023/03/04 04:27:03;;;;;;;33.80;16.92;;;;;;;4.21;79.30;95053.94;5049133;28;20033;-83
2023/03/04 04:29:29;;;;;;;32.65;16.65;;;;;;;4.14;79.20;95049.88;5047735;28;20029;-83
2023/03/04 04:31:54;;;;;;;34.30;16.33;;;;;;;4.03;79.64;95038.41;5050791;28;20036;-83
2023/03/04 04:34:20;;;;;;;34.97;17.83;;;;;;;4.73;79.57;95161.44;5051614;28;20419;-83
2023/03/04 04:36:45;;;;;;;33.25;15.98;;;;;;;4.04;79.54;95045.28;5052850;28;20662;-83
2023/03/04 04:39:11;;;;;;;32.72;17.42;;;;;;;3.79;79.60;95026.44;5052774;28;20674;-83
2023/03/04 04:41:39;;;;;;;33.25;16.30;;;;;;;3.77;80.37;95063.38;5051551;28;20029;-82
2023/03/04 04:44:05;;;;;;;32.65;17.60;;;;;;;3.40;80.21;95013.13;5053148;28;20426;-83
2023/03/04 04:46:31;;;;;;;31.02;16.10;;;;;;;3.63;80.68;95041.09;5053856;28;20108;-83
2023/03/04 04:48:56;;;;;;;32.25;16.85;;;;;;;3.37;80.55;94989.97;5072057;28;20024;-83
2023/03/04 04:51:22;;;;;;;36.65;18.40;;;;;;;3.92;80.91;95057.63;5052515;28;20036;-83
2023/03/04 04:53:47;;;;;;;31.42;17.25;;;;;;;3.89;80.72;95073.84;5052604;28;20114;-82
2023/03/04 04:56:19;;;;;;;31.40;17.75;;;;;;;4.39;81.25;95157.97;5051165;28;20033;-82
2023/03/04 04:58:45;;;;;;;;;;;;;;;4.41;81.22;95161.16;5051917;28;20522;-83
2023/03/04 05:01:11;;;;;;;33.95;17.60;;;;;;;4.42;81.08;95168.00;5051220;28;19928;-83
2023/03/04 05:03:37;;;;;;;34.00;18.42;;;;;;;3.86;80.80;95077.72;5052547;28;20139;-83
2023/03/04 05:06:05;;;;;;;35.92;18.55;;;;;;;4.31;80.82;95133.91;5052860;28;20108;-82
2023/03/04 05:08:31;;;;;;;35.05;18.90;;;;;;;4.58;81.12;95174.31;5071335;28;20387;-83
2023/03/04 05:10:57;;;;;;;37.33;20.02;;;;;;;4.48;81.54;95164.44;5031387;28;20037;-83
2023/03/04 05:13:22;;;;;;;33.80;18.13;;;;;;;4.19;81.56;95119.03;5032480;28;20038;-83
2023/03/04 05:15:52;;;;;;;33.35;18.13;;;;;;;4.70;81.76;95187.41;5050999;28;20033;-83
2023/03/04 05:18:19;;;;;;;36.83;19.08;;;;;;;4.23;81.17;95107.00;5051048;28;20033;-83
2023/03/04 05:20:44;;;;;;;36.08;18.88;;;;;;;4.43;81.54;95143.31;5052690;28;20036;-83
2023/03/04 05:23:10;;;;;;;38.08;19.38;;;;;;;4.52;82.05;95146.38;5050687;28;20801;-83
2023/03/04 05:25:35;;;;;;;40.97;20.58;;;;;;;3.89;82.12;95045.00;5052782;28;20036;-83
2023/03/04 05:28:01;;;;;;;54.85;22.42;;;;;;;4.09;82.33;95063.72;5071115;28;20040;-83
2023/03/04 05:30:27;;;;;;;38.42;19.08;;;;;;;4.68;81.70;95142.97;5053461;28;20043;-83
2023/03/04 05:32:52;;;;;;;39.58;19.67;;;;;;;4.71;81.99;95139.88;5052328;28;20057;-83
2023/03/04 05:35:17;;;;;;;37.72;19.52;;;;;;;4.41;82.10;95086.84;5050763;28;20191;-83
2023/03/04 05:37:43;;;;;;;37.35;18.85;;;;;;;4.11;81.58;95060.88;5052516;28;20028;-83
2023/03/04 05:40:09;;;;;;;36.35;20.45;;;;;;;4.01;81.89;95037.06;5052396;28;20064;-83
2023/03/04 05:42:34;;;;;;;34.53;21.30;;;;;;;4.40;82.37;95091.28;5051100;28;20175;-83
2023/03/04 05:45:00;;;;;;;38.38;20.73;;;;;;;4.82;81.50;95132.94;5050553;28;20124;-83
2023/03/04 05:47:25;;;;;;;41.78;20.27;;;;;;;5.25;82.72;95196.22;5051777;28;20047;-83
2023/03/04 05:49:51;;;;;;;37.97;20.90;;;;;;;4.72;82.27;95098.66;5052190;28;20039;-83
2023/03/04 05:52:16;;;;;;;35.38;19.20;;;;;;;5.36;82.88;95205.03;5051709;28;20601;-83
2023/03/04 05:54:42;;;;;;;39.35;20.50;;;;;;;4.40;82.71;95038.00;5050183;28;20041;-83
2023/03/04 05:57:07;;;;;;;40.78;21.70;;;;;;;5.23;82.53;95150.97;5051712;28;20040;-83
2023/03/04 05:59:32;;;;;;;43.28;21.90;;;;;;;5.55;82.19;95206.41;5051785;28;20039;-83
2023/03/04 06:01:58;;;;;;;38.28;22.15;;;;;;;4.99;83.13;95133.75;5052025;28;20032;-82
2023/03/04 06:04:25;;;;;;;45.25;22.52;;;;;;;5.31;83.06;95176.06;5051739;28;20107;-82
2023/03/04 06:06:50;;;;;;;39.95;22.30;;;;;;;5.08;83.09;95119.19;5051469;28;20037;-83
2023/03/04 06:09:15;;;;;;;41.83;21.27;;;;;;;5.33;82.17;95147.69;5051273;28;20634;-82
2023/03/04 06:11:41;;;;;;;43.22;20.88;;;;;;;5.14;82.33;95114.78;5051344;28;20423;-82
2023/03/04 06:14:06;;;;;;;43.72;22.40;;;;;;;5.93;82.66;95218.00;5049645;28;20087;-83
2023/03/04 06:16:32;;;;;;;43.95;22.63;;;;;;;5.37;81.79;95130.38;5051251;28;20083;-83
2023/03/04 06:18:57;;;;;;;47.78;24.25;;;;;;;6.02;82.57;95213.91;5049747;28;20056;-83
2023/03/04 06:21:23;;;;;;;46.35;22.88;;;;;;;5.49;81.75;95119.78;5063209;28;20128;-83
2023/03/04 06:23:48;;;;;;;44.35;24.98;;;;;;;5.85;81.72;95177.09;5058496;28;20040;-83
2023/03/04 06:26:16;;;;;;;45.53;27.00;;;;;;;5.63;81.85;95144.69;5049714;28;20498;-83
2023/03/04 06:28:43;;;;;;;49.53;28.90;;;;;;;5.40;81.13;95103.59;5051070;28;20036;-83
2023/03/04 06:31:10;;;;;;;50.03;29.17;;;;;;;6.25;81.81;95226.06;5051230;28;20032;-83
2023/03/04 06:33:35;;;;;;;52.25;29.60;;;;;;;6.05;81.09;95203.69;5051550;28;20049;-82
2023/03/04 06:36:01;;;;;;;54.95;28.55;;;;;;;5.42;80.86;95083.09;5050227;28;20032;-83
2023/03/04 06:38:27;;;;;;;54.50;29.20;;;;;;;6.33;80.64;95223.00;5051193;28;20041;-83
2023/03/04 06:40:53;;;;;;;45.50;25.92;;;;;;;5.62;79.69;95157.03;5051027;28;20032;-83
2023/03/04 06:43:18;;;;;;;50.35;24.63;;;;;;;5.73;79.74;95156.13;5059271;28;20043;-83
2023/03/04 06:45:44;;;;;;;49.17;25.65;;;;;;;6.03;80.09;95183.91;5058334;28;20036;-83
2023/03/04 06:48:10;;;;;;;44.10;24.02;;;;;;;6.13;79.98;95190.09;5049131;28;20037;-83
2023/03/04 06:50:36;;;;;;;42.15;23.17;;;;;;;6.16;78.91;95238.84;5050690;28;20045;-83
2023/03/04 06:53:01;;;;;;;48.28;26.23;;;;;;;5.68;79.28;95163.97;5050264;28;20442;-83
2023/03/04 06:55:27;;;;;;;48.03;23.75;;;;;;;5.38;79.14;95119.63;5048278;28;20044;-83
2023/03/04 06:57:52;;;;;;;44.53;23.25;;;;;;;6.21;79.11;95220.47;5049485;28;20398;-83
2023/03/04 07:00:18;;;;;;;40.13;21.05;;;;;;;5.85;78.69;95203.41;5049136;28;20041;-83
2023/03/04 07:02:44;;;;;;;38.28;20.48;;;;;;;5.30;77.65;95103.47;5049211;28;20064;-83
2023/03/04 07:05:10;;;;;;;33.63;18.60;;;;;;;5.44;78.32;95107.31;5050426;28;20060;-83
2023/03/04 07:07:36;;;;;;;40.80;22.13;;;;;;;5.76;77.50;95150.38;5049982;28;20150;-83
2023/03/04 07:10:01;;;;;;;44.03;22.00;;;;;;;6.45;77.57;95247.38;5050645;28;20037;-83
2023/03/04 07:12:26;;;;;;;52.47;24.23;;;;;;;6.36;77.46;95225.91;5050451;28;20028;-83
2023/03/04 07:14:52;;;;;;;38.20;18.38;;;;;;;6.14;77.50;95223.28;5048720;28;20426;-83
2023/03/04 07:17:17;;;;;;;33.25;16.58;;;;;;;5.63;76.61;95144.69;5049013;28;20109;-83
2023/03/04 07:19:43;;;;;;;48.67;21.20;;;;;;;5.23;77.94;95150.16;5050270;28;20036;-83
2023/03/04 07:22:09;;;;;;;50.88;23.60;;;;;;;5.74;78.20;95193.75;5048352;28;20028;-83
2023/03/04 07:24:35;;;;;;;54.45;25.08;;;;;;;5.28;78.38;95116.84;5048737;28;20475;-83
2023/03/04 07:27:00;;;;;;;42.10;21.33;;;;;;;5.67;79.40;95187.88;5049940;28;20025;-83
2023/03/04 07:29:26;;;;;;;42.47;19.58;;;;;;;5.80;78.94;95246.22;5048711;28;20064;-83
2023/03/04 07:31:51;;;;;;;44.33;20.35;;;;;;;5.69;78.68;95204.22;5048335;28;20124;-83
2023/03/04 07:34:17;;;;;;;43.15;20.85;;;;;;;6.23;78.24;95250.00;5048517;28;20071;-83
2023/03/04 07:36:44;;;;;;;45.83;21.05;;;;;;;5.49;77.85;95120.56;5049738;28;20043;-83
2023/03/04 07:39:12;;;;;;;43.10;19.73;;;;;;;5.28;77.97;95131.81;5050004;28;20032;-83
2023/03/04 07:41:38;;;;;;;45.65;19.98;;;;;;;5.90;77.72;95200.06;5049814;28;20036;-83
2023/03/04 07:44:06;;;;;;;47.63;20.20;;;;;;;6.08;77.93;95191.88;5049666;28;20044;-83
2023/03/04 07:46:31;;;;;;;34.10;17.80;;;;;;;6.04;77.07;95178.38;5049656;28;20419;-83
2023/03/04 07:48:57;;;;;;;36.08;19.75;;;;;;;6.20;76.42;95177.53;5049799;28;20027;-83
2023/03/04 07:51:24;;;;;;;47.58;20.27;;;;;;;6.43;76.11;95188.84;5049449;28;20459;-83
2023/03/04 07:53:52;;;;;;;42.58;20.33;;;;;;;6.88;75.65;95259.69;5049250;28;20056;-83
2023/03/04 07:56:21;;;;;;;55.15;27.85;;;;;;;6.92;75.49;95245.78;5048194;28;20033;-83
2023/03/04 07:58:47;;;;;;;47.35;27.20;;;;;;;7.01;76.31;95246.13;5049121;28;20071;-83
2023/03/04 08:01:19;;;;;;;48.25;29.13;;;;;;;6.84;76.42;95213.81;5049677;28;20484;-83
2023/03/04 08:03:44;;;;;;;53.65;29.25;;;;;;;7.11;76.52;95248.84;5048122;28;20031;-83
2023/03/04 08:06:12;;;;;;;52.55;28.73;;;;;;;5.90;76.71;95063.19;5047660;28;20029;-83
2023/03/04 08:08:37;;;;;;;56.20;30.17;;;;;;;6.36;76.95;95146.91;5049305;28;20486;-83
2023/03/04 08:11:06;;;;;;;49.30;28.88;;;;;;;7.07;77.66;95241.72;5048069;28;20122;-83
2023/03/04 08:13:31;;;;;;;54.00;28.83;;;;;;;7.06;77.57;95222.44;5048002;28;20041;-83
2023/03/04 08:15:58;;;;;;;57.80;29.52;;;;;;;7.24;77.39;95237.91;5049648;28;20116;-83
2023/03/04 08:18:23;;;;;;;53.08;28.30;;;;;;;6.71;76.77;95153.59;5049439;28;20036;-83
2023/03/04 08:20:49;;;;;;;49.08;29.23;;;;;;;6.51;77.19;95147.06;5048049;28;20083;-83
2023/03/04 08:23:14;;;;;;;47.50;27.45;;;;;;;6.62;76.53;95163.78;5049189;28;20511;-83
2023/03/04 08:25:41;;;;;;;49.40;27.95;;;;;;;7.05;76.06;95238.50;5049444;28;20108;-83
2023/03/04 08:28:08;;;;;;;46.03;25.73;;;;;;;7.07;76.33;95239.06;5049362;28;20076;-83
2023/03/04 08:30:34;;;;;;;48.70;23.60;;;;;;;6.67;75.26;95171.72;5047673;28;20099;-83
2023/03/04 08:33:01;;;;;;;39.90;23.25;;;;;;;6.78;75.90;95204.25;5047805;28;20124;-83
2023/03/04 08:35:26;;;;;;;44.83;24.65;;;;;;;7.16;75.41;95232.31;5047466;28;20045;-83
2023/03/04 08:37:51;;;;;;;44.90;23.10;;;;;;;6.38;75.58;95113.22;5049511;28;20048;-83
2023/03/04 08:40:17;;;;;;;43.28;24.00;;;;;;;6.75;75.15;95157.28;5047497;28;20021;-83
2023/03/04 08:42:42;;;;;;;47.70;26.92;;;;;;;6.95;74.62;95178.56;5048913;28;20116;-83
2023/03/04 08:45:08;;;;;;;49.03;25.23;;;;;;;7.22;74.48;95233.94;5047946;28;20021;-83
2023/03/04 08:47:34;;;;;;;46.25;26.02;;;;;;;6.74;75.59;95180.22;5047687;28;20495;-83
2023/03/04 08:49:59;;;;;;;53.33;24.25;;;;;;;7.09;74.69;95200.06;5049291;28;20108;-83
2023/03/04 08:52:27;;;;;;;58.88;26.00;;;;;;;7.16;74.75;95196.19;5047352;28;20029;-83
2023/03/04 08:54:52;;;;;;;52.40;25.27;;;;;;;7.16;74.14;95192.75;5048942;28;20124;-83
2023/03/04 08:57:18;;;;;;;52.90;25.15;;;;;;;6.81;74.39;95114.91;5047535;28;20562;-83
2023/03/04 08:59:43;;;;;;;48.00;26.83;;;;;;;6.88;74.08;95147.13;5049460;28;20562;-83
2023/03/04 09:02:08;;;;;;;50.95;26.45;;;;;;;6.77;74.44;95113.84;5048983;28;20029;-83
2023/03/04 09:04:34;;;;;;;45.80;26.42;;;;;;;7.22;74.16;95168.78;5047415;28;20432;-82
2023/03/04 09:06:59;;;;;;;45.33;24.17;;;;;;;7.04;73.46;95142.00;5047759;28;20059;-82
2023/03/04 09:09:25;;;;;;;50.80;24.02;;;;;;;6.85;73.27;95086.22;5047192;28;20037;-82
2023/03/04 09:11:50;;;;;;;47.65;23.13;;;;;;;6.99;73.10;95100.56;5047332;28;20481;-83
2023/03/04 09:14:16;;;;;;;49.53;21.95;;;;;;;7.90;72.40;95219.13;5048758;28;20120;-82
2023/03/04 09:16:41;;;;;;;49.72;23.38;;;;;;;7.94;70.61;95213.06;5048744;28;20025;-82
2023/03/04 09:19:07;;;;;;;41.10;21.35;;;;;;;7.72;70.97;95157.75;5051869;28;20111;-82
2023/03/04 09:21:32;;;;;;;49.33;24.05;;;;;;;7.67;71.33;95120.78;5052334;28;20047;-82
2023/03/04 09:23:57;;;;;;;46.90;23.45;;;;;;;8.31;71.60;95181.34;5050840;28;20115;-82
2023/03/04 09:26:26;;;;;;;56.85;23.30;;;;;;;8.56;70.41;95203.59;5050777;28;20021;-82
2023/03/04 09:28:54;;;;;;;42.78;21.85;;;;;;;8.11;69.15;95133.66;5052154;28;20481;-83
2023/03/04 09:31:20;;;;;;;44.97;21.27;;;;;;;7.96;69.58;95152.88;5050771;28;20035;-83
2023/03/04 09:33:47;;;;;;;40.42;22.05;;;;;;;7.48;69.20;95064.19;5051777;28;20032;-83
2023/03/04 09:36:14;;;;;;;49.60;24.10;;;;;;;7.85;69.53;95085.25;5050599;28;20510;-82
2023/03/04 09:38:40;;;;;;;40.65;22.23;;;;;;;8.13;68.22;95123.63;5050764;28;20032;-82
2023/03/04 09:41:14;;;;;;;46.28;23.55;;;;;;;8.17;67.99;95098.25;5051908;28;20052;-82
2023/03/04 09:43:40;;;;;;;50.42;22.92;;;;;;;8.13;67.47;95074.25;5050663;28;20033;-82
2023/03/04 09:46:22;;;;;;;53.65;23.55;;;;;;;8.81;67.09;95174.56;5050632;28;20040;-81
2023/03/04 09:48:50;;;;;;;39.58;20.33;;;;;;;8.81;67.29;95153.41;5050337;28;20435;-83
2023/03/04 09:51:36;;;;;;;46.70;22.15;;;;;;;7.91;66.57;95068.34;5052648;28;20068;-83
2023/03/04 09:54:14;;;;;;;45.22;22.05;;;;;;;8.76;67.07;95193.09;5051312;28;20064;-82
2023/03/04 09:56:40;;;;;;;46.20;22.48;;;;;;;8.93;66.42;95179.59;5050023;28;20033;-82
2023/03/04 09:59:20;;;;;;;41.88;22.15;;;;;;;8.95;66.24;95180.94;5051692;28;20041;-83
2023/03/04 10:02:35;;;;;;;49.97;22.65;;;;;;;9.05;66.17;95182.81;5051173;28;20045;-82
2023/03/04 10:05:04;;;;;;;34.92;19.58;;;;;;;8.75;65.98;95159.75;5050438;28;20056;-83
2023/03/04 10:07:35;;;;;;;34.35;18.70;;;;;;;8.44;65.61;95100.75;5050870;28;20055;-82
2023/03/04 10:10:14;;;;;;;41.20;19.88;;;;;;;8.90;65.32;95179.09;5051525;28;20533;-82
2023/03/04 10:12:44;;;;;;;42.13;20.65;;;;;;;8.85;65.88;95135.97;5029964;28;20045;-83
2023/03/04 10:15:22;;;;;;;42.55;19.27;;;;;;;9.17;65.61;95168.25;5031817;28;20040;-82
2023/03/04 10:17:52;;;;;;;46.67;19.70;;;;;;;9.22;65.03;95165.63;5049891;28;20032;-83
2023/03/04 10:20:28;;;;;;;42.40;20.03;;;;;;;8.97;64.50;95107.41;5050901;28;20526;-82
2023/03/04 10:23:01;;;;;;;41.53;21.17;;;;;;;9.16;64.95;95105.81;5049980;28;20781;-82
2023/03/04 10:25:31;;;;;;;40.22;19.00;;;;;;;9.26;64.19;95102.38;5049769;28;20036;-82
2023/03/04 10:27:58;;;;;;;40.03;19.23;;;;;;;9.65;64.37;95124.53;5051583;28;20403;-82
2023/03/04 10:30:30;;;;;;;46.47;19.08;;;;;;;9.75;63.03;95158.16;5049739;28;20033;-82
2023/03/04 10:32:56;;;;;;;29.85;18.45;;;;;;;9.36;62.67;95088.34;5049955;28;20044;-83
2023/03/04 10:35:30;;;;;;;40.95;18.17;;;;;;;9.29;63.61;95091.25;5050906;28;20044;-83
2023/03/04 10:38:02;;;;;;;35.45;17.13;;;;;;;9.03;62.00;95027.00;5050779;28;20457;-83
2023/03/04 10:40:27;;;;;;;41.97;18.38;;;;;;;9.87;62.61;95134.81;5049368;28;20033;-83
2023/03/04 10:42:53;;;;;;;46.17;18.77;;;;;;;9.09;62.76;95023.28;5049670;28;20035;-83
2023/03/04 10:45:26;;;;;;;44.88;20.92;;;;;;;9.66;62.58;95110.25;5049470;28;20033;-82
2023/03/04 10:47:57;;;;;;;38.65;18.00;;;;;;;9.45;61.85;95044.38;5050658;28;20037;-82
2023/03/04 10:50:26;;;;;;;34.70;17.23;;;;;;;9.41;61.40;95083.81;5049795;28;20090;-83
2023/03/04 10:52:54;;;;;;;34.45;16.90;;;;;;;9.22;61.33;94972.47;5050489;28;20414;-83
2023/03/04 10:55:26;;;;;;;32.70;16.42;;;;;;;9.64;59.50;95006.44;5051020;28;20029;-83
2023/03/04 10:57:55;;;;;;;35.08;17.63;;;;;;;10.02;59.75;95073.03;5050457;28;20456;-82
2023/03/04 11:00:33;;;;;;;32.75;17.75;;;;;;;10.49;59.20;95106.22;5048936;28;20036;-82
2023/03/04 11:03:23;;;;;;;39.85;17.55;;;;;;;10.61;59.54;95107.47;5050420;28;20037;-82
2023/03/04 11:05:49;;;;;;;35.33;17.67;;;;;;;10.03;59.73;95054.22;5049515;28;20029;-82
2023/03/04 11:08:19;;;;;;;38.38;17.83;;;;;;;9.98;60.27;95054.25;5050625;28;20041;-82
2023/03/04 11:10:45;;;;;;;35.67;18.55;;;;;;;10.16;61.00;95076.66;5050444;28;20032;-82
2023/03/04 11:13:10;;;;;;;39.08;18.70;;;;;;;10.25;60.35;95088.31;5050498;28;20033;-83
2023/03/04 11:15:59;;;;;;;39.67;18.88;;;;;;;10.10;59.77;95053.13;5048697;28;20041;-83
2023/03/04 11:18:30;;;;;;;32.75;17.80;;;;;;;10.38;59.90;95085.06;5042256;28;20052;-83
2023/03/04 11:20:58;;;;;;;32.08;18.00;;;;;;;10.22;59.65;95040.38;5048906;28;20068;-83
2023/03/04 11:23:27;;;;;;;34.28;18.42;;;;;;;10.27;60.20;95066.84;5049917;28;20033;-83